sensor_id;sensor_type;location;lat;lon;timestamp;P1;durP1;ratioP1;P2;durP2;ratioP2
8650;SDS011;4363;52.346;14.516;2022-08-01T00:00:32;398.05;;;249.25;;
8650;SDS011;4363;52.346;14.516;2022-08-01T00:02:58;422.98;;;267.45;;
8650;SDS011;4363;52.346;14.516;2022-08-01T00:05:24;435.15;;;263.85;;
8650;SDS011;4363;52.346;14.516;2022-08-01T00:07:50;391.10;;;246.05;;
8650;SDS011;4363;52.346;14.516;2022-08-01T00:10:17;419.27;;;259.55;;
8650;SDS011;4363;52.346;14.516;2022-08-01T00:12:43;416.30;;;259.48;;
8650;SDS011;4363;52.346;14.516;2022-08-01T00:15:10;406.63;;;254.95;;
8650;SDS011;4363;52.346;14.516;2022-08-01T00:17:36;440.13;;;267.50;;
8650;SDS011;4363;52.346;14.516;2022-08-01T00:20:03;378.58;;;238.00;;
8650;SDS011;4363;52.346;14.516;2022-08-01T00:22:33;400.27;;;246.93;;
8650;SDS011;4363;52.346;14.516;2022-08-01T00:24:59;396.85;;;235.48;;
8650;SDS011;4363;52.346;14.516;2022-08-01T00:27:25;421.88;;;256.08;;
8650;SDS011;4363;52.346;14.516;2022-08-01T00:29:51;381.83;;;238.45;;
8650;SDS011;4363;52.346;14.516;2022-08-01T00:32:17;436.90;;;266.58;;
8650;SDS011;4363;52.346;14.516;2022-08-01T00:34:43;428.90;;;261.98;;
8650;SDS011;4363;52.346;14.516;2022-08-01T00:37:09;428.15;;;262.92;;
8650;SDS011;4363;52.346;14.516;2022-08-01T00:39:35;479.23;;;279.98;;
8650;SDS011;4363;52.346;14.516;2022-08-01T00:42:08;400.13;;;249.38;;
8650;SDS011;4363;52.346;14.516;2022-08-01T00:44:34;401.65;;;249.93;;
8650;SDS011;4363;52.346;14.516;2022-08-01T00:47:00;425.52;;;262.20;;
8650;SDS011;4363;52.346;14.516;2022-08-01T00:49:27;408.20;;;251.25;;
8650;SDS011;4363;52.346;14.516;2022-08-01T00:51:53;409.20;;;252.55;;
8650;SDS011;4363;52.346;14.516;2022-08-01T00:54:19;401.23;;;247.10;;
8650;SDS011;4363;52.346;14.516;2022-08-01T00:56:45;448.50;;;271.00;;
8650;SDS011;4363;52.346;14.516;2022-08-01T00:59:11;388.92;;;232.68;;
8650;SDS011;4363;52.346;14.516;2022-08-01T01:01:37;421.20;;;259.52;;
8650;SDS011;4363;52.346;14.516;2022-08-01T01:04:03;388.15;;;239.38;;
8650;SDS011;4363;52.346;14.516;2022-08-01T01:11:37;405.17;;;242.85;;
8650;SDS011;4363;52.346;14.516;2022-08-01T01:14:05;375.50;;;231.10;;
8650;SDS011;4363;52.346;14.516;2022-08-01T01:16:34;368.63;;;224.10;;
8650;SDS011;4363;52.346;14.516;2022-08-01T01:19:02;379.25;;;231.00;;
8650;SDS011;4363;52.346;14.516;2022-08-01T01:21:33;419.15;;;250.60;;
8650;SDS011;4363;52.346;14.516;2022-08-01T01:24:07;377.98;;;229.88;;
8650;SDS011;4363;52.346;14.516;2022-08-01T01:26:41;385.50;;;228.63;;
8650;SDS011;4363;52.346;14.516;2022-08-01T01:29:16;379.65;;;222.65;;
8650;SDS011;4363;52.346;14.516;2022-08-01T01:31:55;418.92;;;242.88;;
8650;SDS011;4363;52.346;14.516;2022-08-01T01:34:22;391.95;;;232.05;;
8650;SDS011;4363;52.346;14.516;2022-08-01T01:36:49;385.70;;;229.95;;
8650;SDS011;4363;52.346;14.516;2022-08-01T01:39:15;394.17;;;233.23;;
8650;SDS011;4363;52.346;14.516;2022-08-01T01:41:43;409.75;;;240.30;;
8650;SDS011;4363;52.346;14.516;2022-08-01T01:44:10;404.60;;;238.00;;
8650;SDS011;4363;52.346;14.516;2022-08-01T01:46:36;388.42;;;229.43;;
8650;SDS011;4363;52.346;14.516;2022-08-01T01:49:03;405.05;;;242.18;;
8650;SDS011;4363;52.346;14.516;2022-08-01T01:51:29;383.02;;;229.13;;
8650;SDS011;4363;52.346;14.516;2022-08-01T01:53:56;404.55;;;239.68;;
8650;SDS011;4363;52.346;14.516;2022-08-01T01:56:23;412.42;;;241.15;;
8650;SDS011;4363;52.346;14.516;2022-08-01T01:58:53;399.75;;;235.65;;
8650;SDS011;4363;52.346;14.516;2022-08-01T02:01:21;382.85;;;222.77;;
8650;SDS011;4363;52.346;14.516;2022-08-01T02:03:49;395.67;;;230.80;;
8650;SDS011;4363;52.346;14.516;2022-08-01T02:06:16;387.83;;;222.85;;
8650;SDS011;4363;52.346;14.516;2022-08-01T02:08:42;427.02;;;241.88;;
8650;SDS011;4363;52.346;14.516;2022-08-01T02:11:08;459.60;;;259.98;;
8650;SDS011;4363;52.346;14.516;2022-08-01T02:13:45;371.75;;;214.90;;
8650;SDS011;4363;52.346;14.516;2022-08-01T02:16:12;437.88;;;249.82;;
8650;SDS011;4363;52.346;14.516;2022-08-01T02:18:38;380.48;;;220.30;;
8650;SDS011;4363;52.346;14.516;2022-08-01T02:21:05;507.75;;;282.02;;
8650;SDS011;4363;52.346;14.516;2022-08-01T02:23:34;385.77;;;223.00;;
8650;SDS011;4363;52.346;14.516;2022-08-01T02:26:02;436.65;;;249.52;;
8650;SDS011;4363;52.346;14.516;2022-08-01T02:28:29;399.80;;;230.40;;
8650;SDS011;4363;52.346;14.516;2022-08-01T02:30:56;437.83;;;244.50;;
8650;SDS011;4363;52.346;14.516;2022-08-01T02:33:27;389.55;;;226.48;;
8650;SDS011;4363;52.346;14.516;2022-08-01T02:35:57;402.40;;;228.80;;
8650;SDS011;4363;52.346;14.516;2022-08-01T02:38:24;411.90;;;233.13;;
8650;SDS011;4363;52.346;14.516;2022-08-01T02:40:52;387.27;;;222.23;;
8650;SDS011;4363;52.346;14.516;2022-08-01T02:43:18;379.00;;;217.10;;
8650;SDS011;4363;52.346;14.516;2022-08-01T02:45:47;439.23;;;250.63;;
8650;SDS011;4363;52.346;14.516;2022-08-01T02:48:15;418.15;;;242.63;;
8650;SDS011;4363;52.346;14.516;2022-08-01T02:50:44;412.60;;;236.00;;
8650;SDS011;4363;52.346;14.516;2022-08-01T02:53:10;380.58;;;221.57;;
8650;SDS011;4363;52.346;14.516;2022-08-01T02:55:38;507.90;;;288.83;;
8650;SDS011;4363;52.346;14.516;2022-08-01T02:58:04;371.17;;;218.35;;
8650;SDS011;4363;52.346;14.516;2022-08-01T03:00:32;402.17;;;235.25;;
8650;SDS011;4363;52.346;14.516;2022-08-01T03:02:59;370.35;;;219.32;;
8650;SDS011;4363;52.346;14.516;2022-08-01T03:05:26;411.10;;;235.20;;
8650;SDS011;4363;52.346;14.516;2022-08-01T03:07:53;380.80;;;219.68;;
8650;SDS011;4363;52.346;14.516;2022-08-01T03:10:19;402.05;;;231.18;;
8650;SDS011;4363;52.346;14.516;2022-08-01T03:12:45;384.58;;;222.15;;
8650;SDS011;4363;52.346;14.516;2022-08-01T03:15:12;436.30;;;252.63;;
8650;SDS011;4363;52.346;14.516;2022-08-01T03:17:39;456.00;;;261.30;;
8650;SDS011;4363;52.346;14.516;2022-08-01T03:20:06;388.13;;;228.25;;
8650;SDS011;4363;52.346;14.516;2022-08-01T03:22:33;483.88;;;278.13;;
8650;SDS011;4363;52.346;14.516;2022-08-01T03:25:00;388.08;;;232.93;;
8650;SDS011;4363;52.346;14.516;2022-08-01T03:27:27;389.45;;;231.10;;
8650;SDS011;4363;52.346;14.516;2022-08-01T03:29:55;363.73;;;219.85;;
8650;SDS011;4363;52.346;14.516;2022-08-01T03:32:21;447.90;;;252.65;;
8650;SDS011;4363;52.346;14.516;2022-08-01T03:34:47;426.20;;;250.52;;
8650;SDS011;4363;52.346;14.516;2022-08-01T03:39:49;429.35;;;248.43;;
8650;SDS011;4363;52.346;14.516;2022-08-01T03:42:17;403.75;;;232.38;;
8650;SDS011;4363;52.346;14.516;2022-08-01T03:44:45;418.23;;;248.15;;
8650;SDS011;4363;52.346;14.516;2022-08-01T03:47:13;417.08;;;245.25;;
8650;SDS011;4363;52.346;14.516;2022-08-01T03:49:44;386.63;;;225.77;;
8650;SDS011;4363;52.346;14.516;2022-08-01T03:52:12;392.65;;;230.93;;
8650;SDS011;4363;52.346;14.516;2022-08-01T03:54:42;388.88;;;227.05;;
8650;SDS011;4363;52.346;14.516;2022-08-01T03:57:10;393.40;;;227.82;;
8650;SDS011;4363;52.346;14.516;2022-08-01T03:59:36;423.13;;;248.27;;
8650;SDS011;4363;52.346;14.516;2022-08-01T04:02:03;417.20;;;240.32;;
8650;SDS011;4363;52.346;14.516;2022-08-01T04:04:30;391.70;;;227.35;;
8650;SDS011;4363;52.346;14.516;2022-08-01T04:06:56;381.58;;;221.93;;
8650;SDS011;4363;52.346;14.516;2022-08-01T04:09:22;378.63;;;219.15;;
8650;SDS011;4363;52.346;14.516;2022-08-01T04:11:48;440.95;;;252.23;;
8650;SDS011;4363;52.346;14.516;2022-08-01T04:14:14;410.10;;;234.00;;
8650;SDS011;4363;52.346;14.516;2022-08-01T04:16:40;411.80;;;231.68;;
8650;SDS011;4363;52.346;14.516;2022-08-01T04:19:06;395.77;;;230.27;;
8650;SDS011;4363;52.346;14.516;2022-08-01T04:21:35;394.27;;;226.15;;
8650;SDS011;4363;52.346;14.516;2022-08-01T04:24:03;389.92;;;225.25;;
8650;SDS011;4363;52.346;14.516;2022-08-01T04:26:30;401.73;;;219.95;;
8650;SDS011;4363;52.346;14.516;2022-08-01T04:28:57;359.90;;;207.35;;
8650;SDS011;4363;52.346;14.516;2022-08-01T04:31:26;368.52;;;208.30;;
8650;SDS011;4363;52.346;14.516;2022-08-01T04:33:52;384.25;;;216.98;;
8650;SDS011;4363;52.346;14.516;2022-08-01T04:36:19;370.52;;;206.82;;
8650;SDS011;4363;52.346;14.516;2022-08-01T04:38:48;421.20;;;238.00;;
8650;SDS011;4363;52.346;14.516;2022-08-01T04:41:15;415.45;;;235.32;;
8650;SDS011;4363;52.346;14.516;2022-08-01T04:43:42;378.30;;;216.18;;
8650;SDS011;4363;52.346;14.516;2022-08-01T04:46:08;422.10;;;235.68;;
8650;SDS011;4363;52.346;14.516;2022-08-01T04:48:36;424.08;;;233.77;;
8650;SDS011;4363;52.346;14.516;2022-08-01T04:51:02;411.90;;;234.77;;
8650;SDS011;4363;52.346;14.516;2022-08-01T04:53:28;417.90;;;236.23;;
8650;SDS011;4363;52.346;14.516;2022-08-01T04:55:57;378.33;;;219.13;;
8650;SDS011;4363;52.346;14.516;2022-08-01T04:58:23;395.30;;;228.43;;
8650;SDS011;4363;52.346;14.516;2022-08-01T05:00:49;416.17;;;236.60;;
8650;SDS011;4363;52.346;14.516;2022-08-01T05:03:15;379.52;;;216.38;;
8650;SDS011;4363;52.346;14.516;2022-08-01T05:05:41;438.58;;;240.88;;
8650;SDS011;4363;52.346;14.516;2022-08-01T05:08:07;385.77;;;216.75;;
8650;SDS011;4363;52.346;14.516;2022-08-01T05:10:33;397.45;;;222.93;;
8650;SDS011;4363;52.346;14.516;2022-08-01T05:12:59;407.45;;;230.52;;
8650;SDS011;4363;52.346;14.516;2022-08-01T05:15:25;441.17;;;244.15;;
8650;SDS011;4363;52.346;14.516;2022-08-01T05:17:51;395.35;;;225.27;;
8650;SDS011;4363;52.346;14.516;2022-08-01T05:20:17;440.23;;;245.77;;
8650;SDS011;4363;52.346;14.516;2022-08-01T05:22:43;409.67;;;233.48;;
8650;SDS011;4363;52.346;14.516;2022-08-01T05:25:09;387.55;;;222.52;;
8650;SDS011;4363;52.346;14.516;2022-08-01T05:27:35;434.17;;;241.68;;
8650;SDS011;4363;52.346;14.516;2022-08-01T05:30:08;426.50;;;239.35;;
8650;SDS011;4363;52.346;14.516;2022-08-01T05:32:35;379.58;;;216.40;;
8650;SDS011;4363;52.346;14.516;2022-08-01T05:35:01;411.48;;;234.30;;
8650;SDS011;4363;52.346;14.516;2022-08-01T05:37:27;423.88;;;243.10;;
8650;SDS011;4363;52.346;14.516;2022-08-01T05:39:53;419.92;;;240.73;;
8650;SDS011;4363;52.346;14.516;2022-08-01T05:42:19;402.17;;;240.52;;
8650;SDS011;4363;52.346;14.516;2022-08-01T05:44:45;381.17;;;224.20;;
8650;SDS011;4363;52.346;14.516;2022-08-01T05:47:10;479.05;;;273.02;;
8650;SDS011;4363;52.346;14.516;2022-08-01T05:49:36;428.30;;;251.05;;
8650;SDS011;4363;52.346;14.516;2022-08-01T05:52:02;441.65;;;250.82;;
8650;SDS011;4363;52.346;14.516;2022-08-01T05:54:30;424.25;;;249.07;;
8650;SDS011;4363;52.346;14.516;2022-08-01T05:56:55;451.15;;;264.58;;
8650;SDS011;4363;52.346;14.516;2022-08-01T05:59:24;375.23;;;223.43;;
8650;SDS011;4363;52.346;14.516;2022-08-01T06:01:50;368.65;;;225.20;;
8650;SDS011;4363;52.346;14.516;2022-08-01T06:04:16;434.65;;;252.43;;
8650;SDS011;4363;52.346;14.516;2022-08-01T06:06:42;431.95;;;252.43;;
8650;SDS011;4363;52.346;14.516;2022-08-01T06:09:08;438.50;;;254.95;;
8650;SDS011;4363;52.346;14.516;2022-08-01T06:11:34;425.30;;;248.98;;
8650;SDS011;4363;52.346;14.516;2022-08-01T06:14:00;407.92;;;250.05;;
8650;SDS011;4363;52.346;14.516;2022-08-01T06:16:26;416.52;;;247.52;;
8650;SDS011;4363;52.346;14.516;2022-08-01T06:18:52;382.77;;;229.30;;
8650;SDS011;4363;52.346;14.516;2022-08-01T06:21:18;455.50;;;271.98;;
8650;SDS011;4363;52.346;14.516;2022-08-01T06:23:44;425.38;;;256.33;;
8650;SDS011;4363;52.346;14.516;2022-08-01T06:26:10;431.17;;;255.75;;
8650;SDS011;4363;52.346;14.516;2022-08-01T06:28:36;442.63;;;259.20;;
8650;SDS011;4363;52.346;14.516;2022-08-01T06:31:03;417.45;;;253.85;;
8650;SDS011;4363;52.346;14.516;2022-08-01T06:33:29;444.13;;;267.17;;
8650;SDS011;4363;52.346;14.516;2022-08-01T06:35:55;449.98;;;272.25;;
8650;SDS011;4363;52.346;14.516;2022-08-01T06:38:21;443.33;;;257.23;;
8650;SDS011;4363;52.346;14.516;2022-08-01T06:40:49;417.38;;;241.88;;
8650;SDS011;4363;52.346;14.516;2022-08-01T06:43:15;446.38;;;253.73;;
8650;SDS011;4363;52.346;14.516;2022-08-01T06:45:41;442.08;;;264.27;;
8650;SDS011;4363;52.346;14.516;2022-08-01T06:48:07;411.98;;;239.25;;
8650;SDS011;4363;52.346;14.516;2022-08-01T06:50:33;426.70;;;251.77;;
8650;SDS011;4363;52.346;14.516;2022-08-01T06:53:00;437.83;;;270.95;;
8650;SDS011;4363;52.346;14.516;2022-08-01T06:55:26;628.10;;;365.45;;
8650;SDS011;4363;52.346;14.516;2022-08-01T06:57:52;435.10;;;272.95;;
8650;SDS011;4363;52.346;14.516;2022-08-01T07:00:19;476.55;;;281.15;;
8650;SDS011;4363;52.346;14.516;2022-08-01T07:02:47;404.65;;;254.07;;
8650;SDS011;4363;52.346;14.516;2022-08-01T07:05:13;470.10;;;271.77;;
8650;SDS011;4363;52.346;14.516;2022-08-01T07:07:39;496.55;;;282.05;;
8650;SDS011;4363;52.346;14.516;2022-08-01T07:10:05;420.60;;;247.20;;
8650;SDS011;4363;52.346;14.516;2022-08-01T07:12:33;420.75;;;257.90;;
8650;SDS011;4363;52.346;14.516;2022-08-01T07:15:01;433.17;;;265.77;;
8650;SDS011;4363;52.346;14.516;2022-08-01T07:17:27;484.70;;;295.58;;
8650;SDS011;4363;52.346;14.516;2022-08-01T07:19:53;478.55;;;297.50;;
8650;SDS011;4363;52.346;14.516;2022-08-01T07:22:19;509.17;;;310.05;;
8650;SDS011;4363;52.346;14.516;2022-08-01T07:24:45;495.35;;;312.08;;
8650;SDS011;4363;52.346;14.516;2022-08-01T07:27:13;435.33;;;284.20;;
8650;SDS011;4363;52.346;14.516;2022-08-01T07:29:39;490.08;;;300.42;;
8650;SDS011;4363;52.346;14.516;2022-08-01T07:32:05;467.27;;;292.92;;
8650;SDS011;4363;52.346;14.516;2022-08-01T07:34:31;435.70;;;273.23;;
8650;SDS011;4363;52.346;14.516;2022-08-01T07:36:57;441.80;;;280.63;;
8650;SDS011;4363;52.346;14.516;2022-08-01T07:39:23;510.67;;;315.30;;
8650;SDS011;4363;52.346;14.516;2022-08-01T07:41:49;397.13;;;262.90;;
8650;SDS011;4363;52.346;14.516;2022-08-01T07:44:14;458.80;;;289.58;;
8650;SDS011;4363;52.346;14.516;2022-08-01T07:46:40;460.35;;;289.35;;
8650;SDS011;4363;52.346;14.516;2022-08-01T07:49:07;438.17;;;272.90;;
8650;SDS011;4363;52.346;14.516;2022-08-01T07:51:33;405.63;;;262.95;;
8650;SDS011;4363;52.346;14.516;2022-08-01T07:53:59;455.65;;;287.38;;
8650;SDS011;4363;52.346;14.516;2022-08-01T07:56:24;417.40;;;260.77;;
8650;SDS011;4363;52.346;14.516;2022-08-01T07:58:51;486.40;;;307.30;;
8650;SDS011;4363;52.346;14.516;2022-08-01T08:01:17;409.88;;;249.20;;
8650;SDS011;4363;52.346;14.516;2022-08-01T08:03:44;402.95;;;241.45;;
8650;SDS011;4363;52.346;14.516;2022-08-01T08:06:10;498.90;;;287.15;;
8650;SDS011;4363;52.346;14.516;2022-08-01T08:08:36;471.92;;;273.08;;
8650;SDS011;4363;52.346;14.516;2022-08-01T08:11:02;449.20;;;265.30;;
8650;SDS011;4363;52.346;14.516;2022-08-01T08:13:28;431.20;;;254.23;;
8650;SDS011;4363;52.346;14.516;2022-08-01T08:15:54;478.27;;;280.65;;
8650;SDS011;4363;52.346;14.516;2022-08-01T08:18:20;455.38;;;270.23;;
8650;SDS011;4363;52.346;14.516;2022-08-01T08:20:46;451.98;;;273.45;;
8650;SDS011;4363;52.346;14.516;2022-08-01T08:23:12;413.65;;;250.70;;
8650;SDS011;4363;52.346;14.516;2022-08-01T08:25:57;385.38;;;230.10;;
8650;SDS011;4363;52.346;14.516;2022-08-01T08:28:23;468.08;;;270.38;;
8650;SDS011;4363;52.346;14.516;2022-08-01T08:30:49;457.75;;;280.70;;
8650;SDS011;4363;52.346;14.516;2022-08-01T08:33:15;470.67;;;280.75;;
8650;SDS011;4363;52.346;14.516;2022-08-01T08:35:41;442.00;;;279.45;;
8650;SDS011;4363;52.346;14.516;2022-08-01T08:38:07;406.25;;;260.42;;
8650;SDS011;4363;52.346;14.516;2022-08-01T08:40:34;405.15;;;263.98;;
8650;SDS011;4363;52.346;14.516;2022-08-01T08:43:00;414.85;;;264.95;;
8650;SDS011;4363;52.346;14.516;2022-08-01T08:45:27;471.95;;;293.80;;
8650;SDS011;4363;52.346;14.516;2022-08-01T08:47:54;399.00;;;254.75;;
8650;SDS011;4363;52.346;14.516;2022-08-01T08:50:20;477.42;;;293.38;;
8650;SDS011;4363;52.346;14.516;2022-08-01T08:52:46;419.20;;;266.52;;
8650;SDS011;4363;52.346;14.516;2022-08-01T08:55:13;417.10;;;266.80;;
8650;SDS011;4363;52.346;14.516;2022-08-01T08:57:41;461.38;;;295.08;;
8650;SDS011;4363;52.346;14.516;2022-08-01T09:00:08;410.98;;;264.92;;
8650;SDS011;4363;52.346;14.516;2022-08-01T09:02:35;409.27;;;256.15;;
8650;SDS011;4363;52.346;14.516;2022-08-01T09:05:01;418.98;;;268.00;;
8650;SDS011;4363;52.346;14.516;2022-08-01T09:07:27;446.83;;;272.67;;
8650;SDS011;4363;52.346;14.516;2022-08-01T09:09:53;457.48;;;283.08;;
8650;SDS011;4363;52.346;14.516;2022-08-01T09:12:19;411.60;;;262.67;;
8650;SDS011;4363;52.346;14.516;2022-08-01T09:14:46;472.40;;;295.17;;
8650;SDS011;4363;52.346;14.516;2022-08-01T09:17:12;476.00;;;301.80;;
8650;SDS011;4363;52.346;14.516;2022-08-01T09:22:05;427.80;;;269.60;;
8650;SDS011;4363;52.346;14.516;2022-08-01T09:24:32;436.05;;;268.70;;
8650;SDS011;4363;52.346;14.516;2022-08-01T09:26:58;425.02;;;269.13;;
8650;SDS011;4363;52.346;14.516;2022-08-01T09:29:28;462.85;;;290.83;;
8650;SDS011;4363;52.346;14.516;2022-08-01T09:31:55;483.10;;;305.88;;
8650;SDS011;4363;52.346;14.516;2022-08-01T09:34:24;456.80;;;284.98;;
8650;SDS011;4363;52.346;14.516;2022-08-01T09:39:17;491.73;;;292.17;;
8650;SDS011;4363;52.346;14.516;2022-08-01T09:41:43;418.67;;;262.42;;
8650;SDS011;4363;52.346;14.516;2022-08-01T09:44:09;471.52;;;289.95;;
8650;SDS011;4363;52.346;14.516;2022-08-01T09:46:35;414.92;;;264.83;;
8650;SDS011;4363;52.346;14.516;2022-08-01T09:49:02;461.95;;;292.27;;
8650;SDS011;4363;52.346;14.516;2022-08-01T09:51:29;464.40;;;288.33;;
8650;SDS011;4363;52.346;14.516;2022-08-01T09:53:56;423.83;;;273.40;;
8650;SDS011;4363;52.346;14.516;2022-08-01T09:56:22;416.40;;;266.73;;
8650;SDS011;4363;52.346;14.516;2022-08-01T10:01:20;433.95;;;274.38;;
8650;SDS011;4363;52.346;14.516;2022-08-01T10:03:47;443.23;;;274.92;;
8650;SDS011;4363;52.346;14.516;2022-08-01T10:06:22;452.38;;;286.20;;
8650;SDS011;4363;52.346;14.516;2022-08-01T10:08:48;395.00;;;251.35;;
8650;SDS011;4363;52.346;14.516;2022-08-01T10:11:14;385.88;;;247.05;;
8650;SDS011;4363;52.346;14.516;2022-08-01T10:13:40;393.75;;;246.50;;
8650;SDS011;4363;52.346;14.516;2022-08-01T10:16:06;388.52;;;261.77;;
8650;SDS011;4363;52.346;14.516;2022-08-01T10:18:33;411.42;;;281.27;;
8650;SDS011;4363;52.346;14.516;2022-08-01T10:21:00;393.42;;;264.80;;
8650;SDS011;4363;52.346;14.516;2022-08-01T10:23:26;404.67;;;271.80;;
8650;SDS011;4363;52.346;14.516;2022-08-01T10:25:53;434.50;;;284.63;;
8650;SDS011;4363;52.346;14.516;2022-08-01T10:28:19;423.45;;;304.70;;
8650;SDS011;4363;52.346;14.516;2022-08-01T10:30:45;420.13;;;315.27;;
8650;SDS011;4363;52.346;14.516;2022-08-01T10:33:12;387.95;;;299.98;;
8650;SDS011;4363;52.346;14.516;2022-08-01T10:35:38;503.15;;;349.75;;
8650;SDS011;4363;52.346;14.516;2022-08-01T10:38:04;422.90;;;307.48;;
8650;SDS011;4363;52.346;14.516;2022-08-01T10:40:30;432.85;;;310.50;;
8650;SDS011;4363;52.346;14.516;2022-08-01T10:42:56;409.40;;;297.67;;
8650;SDS011;4363;52.346;14.516;2022-08-01T10:45:22;435.73;;;307.98;;
8650;SDS011;4363;52.346;14.516;2022-08-01T10:47:53;385.40;;;285.98;;
8650;SDS011;4363;52.346;14.516;2022-08-01T10:50:27;428.10;;;300.63;;
8650;SDS011;4363;52.346;14.516;2022-08-01T10:53:07;436.45;;;304.48;;
8650;SDS011;4363;52.346;14.516;2022-08-01T10:58:28;424.25;;;285.83;;
8650;SDS011;4363;52.346;14.516;2022-08-01T11:03:39;430.27;;;287.85;;
8650;SDS011;4363;52.346;14.516;2022-08-01T11:06:05;472.33;;;311.65;;
8650;SDS011;4363;52.346;14.516;2022-08-01T11:08:32;494.00;;;324.02;;
8650;SDS011;4363;52.346;14.516;2022-08-01T11:11:02;393.40;;;277.75;;
8650;SDS011;4363;52.346;14.516;2022-08-01T11:16:38;410.20;;;285.45;;
8650;SDS011;4363;52.346;14.516;2022-08-01T11:19:04;417.52;;;285.33;;
8650;SDS011;4363;52.346;14.516;2022-08-01T11:24:16;441.75;;;295.45;;
8650;SDS011;4363;52.346;14.516;2022-08-01T11:27:21;414.73;;;279.98;;
8650;SDS011;4363;52.346;14.516;2022-08-01T11:32:32;376.33;;;259.48;;
8650;SDS011;4363;52.346;14.516;2022-08-01T11:34:58;384.08;;;269.63;;
8650;SDS011;4363;52.346;14.516;2022-08-01T11:37:28;429.08;;;292.25;;
8650;SDS011;4363;52.346;14.516;2022-08-01T11:42:39;496.92;;;321.88;;
8650;SDS011;4363;52.346;14.516;2022-08-01T11:45:05;404.20;;;271.02;;
8650;SDS011;4363;52.346;14.516;2022-08-01T11:47:44;416.35;;;275.25;;
8650;SDS011;4363;52.346;14.516;2022-08-01T11:50:53;410.85;;;276.80;;
8650;SDS011;4363;52.346;14.516;2022-08-01T11:53:04;404.63;;;270.73;;
8650;SDS011;4363;52.346;14.516;2022-08-01T11:55:31;502.38;;;324.80;;
8650;SDS011;4363;52.346;14.516;2022-08-01T11:57:58;403.20;;;272.88;;
8650;SDS011;4363;52.346;14.516;2022-08-01T12:00:24;460.63;;;300.38;;
8650;SDS011;4363;52.346;14.516;2022-08-01T12:03:00;425.70;;;282.50;;
8650;SDS011;4363;52.346;14.516;2022-08-01T12:05:27;457.27;;;292.63;;
8650;SDS011;4363;52.346;14.516;2022-08-01T12:07:54;419.50;;;276.63;;
8650;SDS011;4363;52.346;14.516;2022-08-01T12:10:20;403.02;;;262.67;;
8650;SDS011;4363;52.346;14.516;2022-08-01T12:12:54;465.55;;;298.70;;
8650;SDS011;4363;52.346;14.516;2022-08-01T12:15:21;475.02;;;285.48;;
8650;SDS011;4363;52.346;14.516;2022-08-01T12:17:58;411.77;;;261.25;;
8650;SDS011;4363;52.346;14.516;2022-08-01T12:20:28;401.45;;;257.30;;
8650;SDS011;4363;52.346;14.516;2022-08-01T12:22:54;418.73;;;264.30;;
8650;SDS011;4363;52.346;14.516;2022-08-01T12:25:21;448.27;;;276.80;;
8650;SDS011;4363;52.346;14.516;2022-08-01T12:27:47;407.27;;;267.73;;
8650;SDS011;4363;52.346;14.516;2022-08-01T12:30:14;401.30;;;262.35;;
8650;SDS011;4363;52.346;14.516;2022-08-01T12:32:41;455.83;;;279.70;;
8650;SDS011;4363;52.346;14.516;2022-08-01T12:35:12;437.25;;;271.65;;
8650;SDS011;4363;52.346;14.516;2022-08-01T12:37:40;393.05;;;263.05;;
8650;SDS011;4363;52.346;14.516;2022-08-01T12:40:13;397.13;;;266.23;;
8650;SDS011;4363;52.346;14.516;2022-08-01T12:42:39;398.42;;;264.75;;
8650;SDS011;4363;52.346;14.516;2022-08-01T12:45:07;442.95;;;284.27;;
8650;SDS011;4363;52.346;14.516;2022-08-01T12:47:34;395.73;;;267.10;;
8650;SDS011;4363;52.346;14.516;2022-08-01T12:50:00;400.48;;;267.20;;
8650;SDS011;4363;52.346;14.516;2022-08-01T12:52:26;437.10;;;290.15;;
8650;SDS011;4363;52.346;14.516;2022-08-01T12:54:59;470.23;;;306.05;;
8650;SDS011;4363;52.346;14.516;2022-08-01T12:57:25;438.85;;;271.65;;
8650;SDS011;4363;52.346;14.516;2022-08-01T13:00:04;459.67;;;292.50;;
8650;SDS011;4363;52.346;14.516;2022-08-01T13:02:31;485.42;;;304.83;;
8650;SDS011;4363;52.346;14.516;2022-08-01T13:04:58;418.85;;;282.60;;
8650;SDS011;4363;52.346;14.516;2022-08-01T13:07:34;420.23;;;273.00;;
8650;SDS011;4363;52.346;14.516;2022-08-01T13:10:00;404.45;;;275.77;;
8650;SDS011;4363;52.346;14.516;2022-08-01T13:12:26;427.38;;;285.98;;
8650;SDS011;4363;52.346;14.516;2022-08-01T13:14:52;402.83;;;283.92;;
8650;SDS011;4363;52.346;14.516;2022-08-01T13:17:31;501.02;;;334.85;;
8650;SDS011;4363;52.346;14.516;2022-08-01T13:19:57;405.05;;;288.42;;
8650;SDS011;4363;52.346;14.516;2022-08-01T13:22:35;417.63;;;297.45;;
8650;SDS011;4363;52.346;14.516;2022-08-01T13:25:14;437.08;;;305.63;;
8650;SDS011;4363;52.346;14.516;2022-08-01T13:27:40;411.52;;;294.63;;
8650;SDS011;4363;52.346;14.516;2022-08-01T13:30:10;433.83;;;299.30;;
8650;SDS011;4363;52.346;14.516;2022-08-01T13:32:36;410.70;;;289.83;;
8650;SDS011;4363;52.346;14.516;2022-08-01T13:37:28;415.33;;;279.27;;
8650;SDS011;4363;52.346;14.516;2022-08-01T13:39:54;436.17;;;286.83;;
8650;SDS011;4363;52.346;14.516;2022-08-01T13:42:20;432.88;;;284.33;;
8650;SDS011;4363;52.346;14.516;2022-08-01T13:44:46;407.15;;;265.83;;
8650;SDS011;4363;52.346;14.516;2022-08-01T13:47:12;423.65;;;269.08;;
8650;SDS011;4363;52.346;14.516;2022-08-01T13:49:38;419.80;;;267.80;;
8650;SDS011;4363;52.346;14.516;2022-08-01T13:52:04;453.33;;;289.23;;
8650;SDS011;4363;52.346;14.516;2022-08-01T13:54:34;425.55;;;279.08;;
8650;SDS011;4363;52.346;14.516;2022-08-01T13:57:00;453.92;;;283.92;;
8650;SDS011;4363;52.346;14.516;2022-08-01T13:59:26;408.67;;;261.30;;
8650;SDS011;4363;52.346;14.516;2022-08-01T14:01:52;406.50;;;261.08;;
8650;SDS011;4363;52.346;14.516;2022-08-01T14:04:18;438.80;;;271.30;;
8650;SDS011;4363;52.346;14.516;2022-08-01T14:06:45;439.92;;;272.38;;
8650;SDS011;4363;52.346;14.516;2022-08-01T14:09:11;449.20;;;277.98;;
8650;SDS011;4363;52.346;14.516;2022-08-01T14:11:37;405.55;;;258.40;;
8650;SDS011;4363;52.346;14.516;2022-08-01T14:14:03;411.15;;;264.23;;
8650;SDS011;4363;52.346;14.516;2022-08-01T14:16:29;399.58;;;261.63;;
8650;SDS011;4363;52.346;14.516;2022-08-01T14:18:55;430.67;;;277.75;;
8650;SDS011;4363;52.346;14.516;2022-08-01T14:21:21;550.20;;;332.90;;
8650;SDS011;4363;52.346;14.516;2022-08-01T14:23:47;483.23;;;308.38;;
8650;SDS011;4363;52.346;14.516;2022-08-01T14:26:13;472.52;;;302.85;;
8650;SDS011;4363;52.346;14.516;2022-08-01T14:28:39;400.17;;;258.30;;
8650;SDS011;4363;52.346;14.516;2022-08-01T14:31:05;453.50;;;290.58;;
8650;SDS011;4363;52.346;14.516;2022-08-01T14:33:31;438.98;;;284.30;;
8650;SDS011;4363;52.346;14.516;2022-08-01T14:35:57;535.58;;;333.05;;
8650;SDS011;4363;52.346;14.516;2022-08-01T14:38:23;470.65;;;299.85;;
8650;SDS011;4363;52.346;14.516;2022-08-01T14:40:49;402.45;;;272.33;;
8650;SDS011;4363;52.346;14.516;2022-08-01T14:43:18;443.00;;;283.55;;